createdAt,value
2018-07-10T00:02:09.040Z,20.14
2018-07-10T00:05:49.077Z,20.23
2018-07-10T00:10:35.820Z,20.16
2018-07-10T00:13:07.328Z,19.98
2018-07-10T00:15:38.030Z,20.04
2018-07-10T00:18:08.672Z,20.09
2018-07-10T00:20:39.712Z,20.04
2018-07-10T00:23:10.592Z,20.09
2018-07-10T00:25:41.157Z,20.19
2018-07-10T00:28:12.088Z,20.27
2018-07-10T00:30:43.150Z,20.29
2018-07-10T00:33:14.143Z,20.27
2018-07-10T00:35:44.698Z,20.16
2018-07-10T00:38:25.948Z,20.15
2018-07-10T00:40:57.429Z,20.11
2018-07-10T00:43:28.147Z,20.27
2018-07-10T00:45:58.966Z,20.36
2018-07-10T00:48:30.419Z,20.40
2018-07-10T00:51:01.628Z,20.35
2018-07-10T00:53:32.649Z,20.20
2018-07-10T00:56:03.367Z,20.18
2018-07-10T00:58:34.350Z,20.22
2018-07-10T01:01:05.210Z,20.20
2018-07-10T01:03:35.790Z,20.10
2018-07-10T01:06:06.590Z,20.20
2018-07-10T01:08:37.850Z,20.16
2018-07-10T01:11:13.014Z,20.08
2018-07-10T01:13:45.042Z,19.96
2018-07-10T01:16:20.986Z,19.82
2018-07-10T01:18:55.463Z,19.90
2018-07-10T01:21:26.462Z,19.79
2018-07-10T01:24:00.700Z,19.86
2018-07-10T01:26:35.731Z,19.81
2018-07-10T01:30:10.813Z,19.81
2018-07-10T01:32:43.141Z,19.77
2018-07-10T01:35:15.133Z,19.73
2018-07-10T01:37:47.616Z,19.73
2018-07-10T01:40:19.039Z,19.78
2018-07-10T01:42:49.511Z,19.78
2018-07-10T01:45:20.904Z,19.86
2018-07-10T01:47:52.254Z,19.86
2018-07-10T01:50:23.161Z,19.86
2018-07-10T01:52:54.369Z,19.84
2018-07-10T01:55:25.788Z,19.78
2018-07-10T01:57:57.910Z,19.88
2018-07-10T02:00:40.589Z,19.86
2018-07-10T02:03:12.375Z,19.94
2018-07-10T02:05:43.922Z,20.05
2018-07-10T02:08:14.847Z,20.12
2018-07-10T02:10:46.778Z,20.10
2018-07-10T02:13:17.115Z,19.97
2018-07-10T02:15:47.851Z,19.98
2018-07-10T02:18:18.603Z,19.94
2018-07-10T02:20:58.480Z,20.01
2018-07-10T02:23:35.496Z,19.97
2018-07-10T02:26:08.124Z,19.82
2018-07-10T02:28:39.106Z,19.75
2018-07-10T02:31:10.068Z,19.80
2018-07-10T02:33:40.745Z,19.84
2018-07-10T02:36:11.084Z,19.90
2018-07-10T02:38:44.572Z,19.96
2018-07-10T02:41:17.903Z,19.88
2018-07-10T02:43:58.750Z,19.84
2018-07-10T02:46:31.289Z,19.84
2018-07-10T02:49:12.632Z,19.96
2018-07-10T02:51:47.155Z,20.00
2018-07-10T02:54:18.274Z,20.06
2018-07-10T02:56:50.332Z,20.07
2018-07-10T02:59:21.308Z,19.87
2018-07-10T03:01:52.232Z,19.82
2018-07-10T03:04:23.171Z,19.79
2018-07-10T03:06:53.343Z,19.70
2018-07-10T03:09:24.485Z,19.72
2018-07-10T03:11:55.554Z,19.91
2018-07-10T03:14:26.257Z,19.88
2018-07-10T03:16:57.420Z,19.83
2018-07-10T03:19:29.600Z,19.78
2018-07-10T03:22:00.658Z,19.67
2018-07-10T03:24:31.652Z,19.73
2018-07-10T03:27:02.585Z,19.79
2018-07-10T03:29:33.581Z,19.91
2018-07-10T03:32:04.626Z,19.97
2018-07-10T03:34:35.863Z,19.73
2018-07-10T03:37:06.981Z,19.77
2018-07-10T03:39:41.012Z,19.70
2018-07-10T03:42:13.611Z,19.51
2018-07-10T03:44:46.162Z,19.54
2018-07-10T03:47:18.863Z,19.51
2018-07-10T03:49:49.804Z,19.55
2018-07-10T03:52:37.958Z,19.60
2018-07-10T03:55:14.485Z,19.65
2018-07-10T03:57:45.774Z,19.60
2018-07-10T04:00:17.361Z,19.65
2018-07-10T04:02:50.662Z,19.74
2018-07-10T04:05:23.018Z,19.70
2018-07-10T04:07:56.316Z,19.72
2018-07-10T04:10:33.032Z,19.85
2018-07-10T04:13:08.858Z,19.87
2018-07-10T04:15:40.197Z,20.06
2018-07-10T04:18:14.509Z,20.14
2018-07-10T04:21:25.907Z,20.24
2018-07-10T04:24:21.958Z,20.26
2018-07-10T04:27:03.841Z,20.26
2018-07-10T04:29:40.575Z,20.35
2018-07-10T04:32:14.249Z,20.30
2018-07-10T04:34:44.997Z,20.44
2018-07-10T04:37:16.041Z,20.46
2018-07-10T04:39:46.659Z,20.41
2018-07-10T04:42:25.660Z,20.52
2018-07-10T04:45:00.915Z,20.58
2018-07-10T04:47:37.554Z,20.71
2018-07-10T04:50:15.471Z,20.74
2018-07-10T04:52:51.524Z,20.94
2018-07-10T04:55:22.503Z,20.83
2018-07-10T04:58:07.883Z,21.05
2018-07-10T05:01:13.738Z,21.06
2018-07-10T05:03:44.837Z,21.03
2018-07-10T05:06:15.549Z,21.16
2018-07-10T05:08:46.540Z,21.21
2018-07-10T05:11:17.589Z,21.29
2018-07-10T05:13:48.531Z,21.20
2018-07-10T05:16:19.690Z,21.28
2018-07-10T05:18:50.582Z,21.46
2018-07-10T05:21:21.720Z,21.25
2018-07-10T05:23:52.316Z,21.19
2018-07-10T05:26:23.012Z,21.38
2018-07-10T05:28:54.763Z,21.38
2018-07-10T05:31:25.854Z,21.36
2018-07-10T05:33:55.929Z,21.48
2018-07-10T05:36:26.686Z,21.45
2018-07-10T05:38:59.893Z,21.61
2018-07-10T05:41:30.959Z,21.89
2018-07-10T05:44:01.895Z,22.05
2018-07-10T05:46:32.820Z,22.00
2018-07-10T05:49:05.372Z,22.05
2018-07-10T05:51:39.528Z,22.03
2018-07-10T05:54:10.734Z,22.02
2018-07-10T05:56:41.778Z,22.06
2018-07-10T05:59:14.225Z,22.30
2018-07-10T06:01:46.938Z,22.42
2018-07-10T06:04:18.914Z,22.47
2018-07-10T06:06:49.438Z,22.34
2018-07-10T06:09:21.260Z,22.35
2018-07-10T06:11:52.372Z,22.53
2018-07-10T06:14:24.331Z,22.54
2018-07-10T06:16:55.095Z,22.54
2018-07-10T06:19:26.510Z,22.68
2018-07-10T06:21:57.148Z,22.73
2018-07-10T06:24:29.272Z,22.92
2018-07-10T06:27:02.800Z,22.86
2018-07-10T06:29:52.756Z,23.12
2018-07-10T06:32:24.067Z,23.07
2018-07-10T06:35:07.635Z,22.98
2018-07-10T06:37:42.829Z,23.12
2018-07-10T06:40:14.007Z,23.09
2018-07-10T06:42:54.371Z,23.26
2018-07-10T06:45:25.568Z,23.13
2018-07-10T06:47:56.665Z,23.46
2018-07-10T06:50:28.036Z,23.66
2018-07-10T06:52:59.554Z,23.54
2018-07-10T06:55:30.028Z,23.80
2018-07-10T06:58:01.538Z,23.83
2018-07-10T07:00:32.135Z,23.88
2018-07-10T07:03:03.391Z,23.88
2018-07-10T07:05:35.117Z,23.80
2018-07-10T07:08:06.447Z,23.89
2018-07-10T07:10:38.151Z,23.93
2018-07-10T07:13:09.189Z,24.05
2018-07-10T07:15:41.113Z,24.09
2018-07-10T07:18:11.428Z,24.30
2018-07-10T07:20:42.289Z,24.26
2018-07-10T07:23:14.268Z,24.37
2018-07-10T07:25:46.395Z,24.41
2018-07-10T07:28:18.542Z,24.56
2018-07-10T07:30:49.689Z,24.37
2018-07-10T07:33:21.891Z,24.44
2018-07-10T07:35:52.997Z,24.80
2018-07-10T07:38:24.048Z,24.86
2018-07-10T07:40:55.349Z,25.01
2018-07-10T07:43:26.350Z,25.00
2018-07-10T07:45:58.248Z,25.21
2018-07-10T07:48:28.849Z,25.04
2018-07-10T07:50:59.647Z,25.18
2018-07-10T07:53:30.867Z,25.15
2018-07-10T07:56:02.290Z,25.08
2018-07-10T07:58:33.787Z,25.34
2018-07-10T08:01:04.749Z,25.58
2018-07-10T08:03:35.675Z,25.11
2018-07-10T08:06:07.799Z,25.25
2018-07-10T08:08:38.902Z,25.59
2018-07-10T08:11:10.064Z,25.41
2018-07-10T08:13:41.386Z,25.26
2018-07-10T08:16:13.051Z,25.85
2018-07-10T08:18:44.940Z,26.06
2018-07-10T08:21:16.529Z,25.69
2018-07-10T08:23:48.831Z,26.14
2018-07-10T08:26:20.574Z,25.61
2018-07-10T08:28:52.614Z,25.74
2018-07-10T08:31:23.671Z,26.33
2018-07-10T08:33:56.063Z,26.21
2018-07-10T08:36:27.599Z,26.18
2018-07-10T08:38:59.231Z,26.69
2018-07-10T08:41:35.382Z,26.66
2018-07-10T08:44:07.237Z,26.47
2018-07-10T08:46:39.412Z,26.65
2018-07-10T08:49:12.285Z,27.01
2018-07-10T08:51:43.615Z,27.03
2018-07-10T08:54:14.654Z,27.10
2018-07-10T08:56:46.135Z,27.30
2018-07-10T08:59:17.405Z,27.88
2018-07-10T09:01:49.612Z,28.32
2018-07-10T09:04:21.272Z,28.10
2018-07-10T09:06:52.699Z,28.16
2018-07-10T09:09:23.744Z,27.82
2018-07-10T09:11:55.219Z,27.42
2018-07-10T09:14:26.944Z,27.50
2018-07-10T09:16:58.213Z,27.77
2018-07-10T09:19:31.554Z,28.36
2018-07-10T09:22:11.098Z,28.37
2018-07-10T09:24:51.332Z,28.09
2018-07-10T09:27:23.766Z,28.08
2018-07-10T09:29:54.912Z,28.05
2018-07-10T09:32:30.967Z,28.73
2018-07-10T09:35:02.517Z,29.32
2018-07-10T09:37:39.437Z,29.62
2018-07-10T09:40:16.677Z,29.18
2018-07-10T09:42:55.050Z,28.99
2018-07-10T09:45:29.285Z,28.95
2018-07-10T09:48:00.886Z,28.88
2018-07-10T09:50:32.313Z,28.60
2018-07-10T09:53:04.491Z,28.51
2018-07-10T09:55:35.814Z,28.84
2018-07-10T09:58:08.017Z,29.08
2018-07-10T10:00:44.074Z,29.15
2018-07-10T10:03:16.542Z,28.75
2018-07-10T10:05:48.238Z,28.83
2018-07-10T10:08:19.749Z,29.11
2018-07-10T10:10:51.577Z,29.51
2018-07-10T10:13:23.341Z,30.01
2018-07-10T10:15:55.142Z,30.91
2018-07-10T10:18:28.113Z,31.24
2018-07-10T10:21:00.134Z,29.73
2018-07-10T10:23:31.872Z,29.65
2018-07-10T10:26:03.863Z,29.71
2018-07-10T10:28:35.558Z,29.19
2018-07-10T10:31:07.474Z,29.57
2018-07-10T10:33:39.689Z,29.69
2018-07-10T10:36:15.607Z,30.33
2018-07-10T10:38:48.038Z,30.98
2018-07-10T10:41:20.187Z,31.32
2018-07-10T10:43:51.717Z,31.39
2018-07-10T10:46:24.568Z,31.58
2018-07-10T10:48:58.055Z,30.84
2018-07-10T10:51:29.675Z,30.74
2018-07-10T10:54:01.781Z,30.71
2018-07-10T10:56:33.720Z,30.95
2018-07-10T10:59:05.275Z,31.40
2018-07-10T11:01:38.059Z,31.89
2018-07-10T11:04:12.695Z,31.76
2018-07-10T11:06:49.371Z,31.50
2018-07-10T11:09:25.356Z,30.97
2018-07-10T11:11:58.434Z,31.07
2018-07-10T11:14:30.722Z,31.29
2018-07-10T11:17:03.875Z,31.41
2018-07-10T11:19:52.073Z,31.78
2018-07-10T11:22:26.001Z,31.15
2018-07-10T11:25:06.349Z,31.88
2018-07-10T11:28:08.892Z,31.98
2018-07-10T11:30:39.820Z,32.03
2018-07-10T11:33:12.505Z,31.63
2018-07-10T11:35:44.820Z,31.59
2018-07-10T11:38:18.090Z,31.78
2018-07-10T11:40:50.127Z,32.01
2018-07-10T11:43:37.533Z,32.15
2018-07-10T11:46:08.932Z,32.24
2018-07-10T11:48:41.668Z,32.20
2018-07-10T11:51:14.879Z,32.65
2018-07-10T11:53:46.656Z,33.24
2018-07-10T11:56:17.767Z,33.40
2018-07-10T11:58:48.186Z,33.60
2018-07-10T12:01:19.252Z,33.33
2018-07-10T12:03:51.051Z,32.80
2018-07-10T12:06:25.867Z,32.88
2018-07-10T12:08:58.528Z,32.32
2018-07-10T12:11:32.591Z,32.76
2018-07-10T12:14:09.965Z,33.07
2018-07-10T12:16:41.189Z,33.34
2018-07-10T12:19:12.861Z,33.63
2018-07-10T12:21:43.508Z,34.31
2018-07-10T12:24:15.553Z,33.74
2018-07-10T12:26:45.997Z,33.76
2018-07-10T12:29:17.815Z,32.88
2018-07-10T12:31:49.364Z,32.51
2018-07-10T12:34:20.802Z,32.82
2018-07-10T12:36:52.579Z,32.80
2018-07-10T12:39:24.048Z,33.27
2018-07-10T12:41:56.340Z,33.40
2018-07-10T12:44:28.325Z,33.74
2018-07-10T12:46:59.209Z,34.03
2018-07-10T12:49:30.596Z,33.68
2018-07-10T12:52:02.512Z,34.12
2018-07-10T12:54:34.147Z,34.30
2018-07-10T12:57:05.874Z,33.94
2018-07-10T12:59:38.360Z,33.46
2018-07-10T13:02:10.844Z,33.36
2018-07-10T13:04:43.041Z,33.78
2018-07-10T13:07:13.438Z,33.95
2018-07-10T13:09:45.163Z,34.09
2018-07-10T13:12:16.984Z,33.56
2018-07-10T13:14:48.574Z,33.63
2018-07-10T13:17:20.504Z,33.70
2018-07-10T13:19:53.660Z,33.11
2018-07-10T13:22:25.613Z,33.18
2018-07-10T13:24:57.237Z,33.79
2018-07-10T13:27:29.151Z,34.32
2018-07-10T13:30:00.482Z,33.35
2018-07-10T13:32:32.318Z,32.98
2018-07-10T13:35:04.382Z,34.04
2018-07-10T13:37:39.267Z,34.06
2018-07-10T13:40:10.989Z,34.05
2018-07-10T13:42:50.034Z,33.79
2018-07-10T13:45:22.554Z,33.16
2018-07-10T13:47:54.232Z,33.70
2018-07-10T13:50:29.812Z,34.12
2018-07-10T13:53:01.979Z,33.84
2018-07-10T13:55:33.867Z,33.25
2018-07-10T13:58:12.326Z,33.53
2018-07-10T14:00:46.935Z,33.65
2018-07-10T14:03:18.533Z,34.18
2018-07-10T14:05:50.473Z,34.44
2018-07-10T14:08:21.845Z,33.88
2018-07-10T14:10:53.312Z,33.43
2018-07-10T14:13:24.715Z,33.21
2018-07-10T14:15:56.744Z,32.91
2018-07-10T14:18:28.273Z,33.15
2018-07-10T14:21:08.432Z,33.15
2018-07-10T14:23:39.550Z,32.91
2018-07-10T14:26:10.431Z,32.55
2018-07-10T14:28:41.231Z,32.08
2018-07-10T14:31:11.808Z,31.62
2018-07-10T14:33:43.235Z,32.57
2018-07-10T14:36:13.933Z,32.68
2018-07-10T14:38:45.653Z,32.78
2018-07-10T14:41:20.225Z,32.94
2018-07-10T14:43:51.817Z,32.81
2018-07-10T14:46:25.198Z,32.64
2018-07-10T14:48:59.980Z,32.44
2018-07-10T14:51:44.714Z,31.82
2018-07-10T14:54:16.180Z,31.75
2018-07-10T14:56:48.324Z,32.27
2018-07-10T14:59:20.342Z,33.11
2018-07-10T15:01:51.507Z,32.86
2018-07-10T15:04:32.726Z,32.39
2018-07-10T15:07:06.198Z,32.24
2018-07-10T15:09:37.938Z,31.97
2018-07-10T15:12:10.813Z,32.59
2018-07-10T15:14:43.495Z,32.00
2018-07-10T15:17:20.498Z,31.60
2018-07-10T15:19:52.933Z,31.35
2018-07-10T15:22:28.374Z,31.34
2018-07-10T15:25:02.988Z,31.03
2018-07-10T15:27:37.492Z,30.96
2018-07-10T15:30:12.200Z,30.80
2018-07-10T15:32:44.548Z,30.88
2018-07-10T15:35:18.322Z,30.97
2018-07-10T15:37:59.253Z,31.12
2018-07-10T15:40:30.532Z,31.03
2018-07-10T15:43:02.303Z,30.96
2018-07-10T15:45:33.753Z,31.26
2018-07-10T15:48:05.312Z,31.13
2018-07-10T15:50:36.526Z,30.72
2018-07-10T15:53:07.220Z,30.26
2018-07-10T15:55:38.878Z,30.11
2018-07-10T15:58:10.912Z,30.25
2018-07-10T16:00:43.493Z,30.08
2018-07-10T16:03:14.310Z,30.24
2018-07-10T16:05:46.531Z,30.37
2018-07-10T16:08:21.951Z,30.25
2018-07-10T16:10:58.491Z,30.05
2018-07-10T16:13:31.772Z,30.03
2018-07-10T16:16:02.062Z,29.59
2018-07-10T16:18:32.452Z,29.12
2018-07-10T16:21:04.958Z,29.02
2018-07-10T16:23:36.676Z,28.45
2018-07-10T16:26:11.740Z,28.32
2018-07-10T16:28:44.289Z,28.48
2018-07-10T16:31:18.193Z,28.55
2018-07-10T16:33:49.531Z,28.48
2018-07-10T16:36:20.888Z,28.53
2018-07-10T16:38:52.177Z,28.51
2018-07-10T16:41:28.683Z,28.46
2018-07-10T16:44:05.123Z,28.50
2018-07-10T16:46:37.124Z,28.50
2018-07-10T16:49:19.815Z,28.43
2018-07-10T16:51:57.116Z,28.48
2018-07-10T16:54:28.277Z,28.47
2018-07-10T16:56:59.624Z,28.42
2018-07-10T16:59:31.419Z,28.17
2018-07-10T17:02:02.803Z,28.15
2018-07-10T17:04:34.216Z,27.95
2018-07-10T17:07:12.309Z,27.84
2018-07-10T17:09:42.787Z,27.80
2018-07-10T17:12:13.406Z,27.66
2018-07-10T17:14:52.517Z,27.60
2018-07-10T17:17:22.812Z,27.39
2018-07-10T17:19:53.819Z,27.08
2018-07-10T17:22:24.748Z,27.10
2018-07-10T17:24:56.225Z,26.96
2018-07-10T17:27:34.184Z,26.74
2018-07-10T17:30:05.658Z,26.81
2018-07-10T17:32:37.435Z,26.47
2018-07-10T17:35:07.564Z,26.31
2018-07-10T17:37:44.456Z,26.04
2018-07-10T17:40:15.244Z,25.83
2018-07-10T17:42:47.567Z,25.66
2018-07-10T17:45:21.911Z,25.53
2018-07-10T17:47:52.003Z,25.47
2018-07-10T17:50:22.525Z,25.29
2018-07-10T17:52:53.572Z,25.18
2018-07-10T17:55:24.139Z,25.02
2018-07-10T17:58:01.217Z,24.96
2018-07-10T18:00:31.582Z,24.81
2018-07-10T18:03:02.024Z,24.71
2018-07-10T18:05:32.693Z,24.70
2018-07-10T18:08:02.976Z,24.48
2018-07-10T18:10:33.493Z,24.39
2018-07-10T18:13:03.927Z,24.33
2018-07-10T18:15:34.125Z,24.17
2018-07-10T18:18:04.517Z,24.10
2018-07-10T18:20:34.787Z,24.11
2018-07-10T18:23:05.137Z,24.08
2018-07-10T18:25:35.445Z,24.06
2018-07-10T18:28:05.929Z,24.04
2018-07-10T18:30:36.248Z,23.98
2018-07-10T18:33:06.561Z,23.92
2018-07-10T18:35:36.981Z,23.95
2018-07-10T18:38:07.215Z,23.90
2018-07-10T18:40:37.902Z,23.89
2018-07-10T18:43:08.140Z,23.78
2018-07-10T18:45:38.425Z,23.72
2018-07-10T18:48:08.927Z,23.58
2018-07-10T18:50:39.118Z,23.45
2018-07-10T18:53:09.516Z,23.31
2018-07-10T18:55:39.901Z,23.36
2018-07-10T18:58:16.425Z,23.41
2018-07-10T19:01:26.990Z,23.21
2018-07-10T19:03:57.683Z,23.22
2018-07-10T19:06:28.052Z,23.22
2018-07-10T19:08:58.710Z,23.16
2018-07-10T19:11:29.232Z,23.14
2018-07-10T19:14:01.740Z,23.02
2018-07-10T19:16:32.822Z,23.07
2018-07-10T19:19:04.170Z,22.92
2018-07-10T19:21:39.189Z,22.81
2018-07-10T19:24:16.988Z,22.67
2018-07-10T19:26:49.511Z,22.62
2018-07-10T19:29:55.325Z,22.55
2018-07-10T19:32:26.373Z,22.44
2018-07-10T19:35:00.592Z,22.50
2018-07-10T19:37:32.705Z,22.47
2018-07-10T19:40:02.921Z,22.42
2018-07-10T19:42:34.555Z,22.36
2018-07-10T19:45:05.600Z,22.36
2018-07-10T19:47:35.980Z,22.32
2018-07-10T19:50:20.064Z,22.29
2018-07-10T19:52:54.635Z,22.24
2018-07-10T19:55:29.228Z,22.20
2018-07-10T19:58:11.624Z,22.10
2018-07-10T20:00:47.190Z,22.11
2018-07-10T20:03:59.168Z,22.05
2018-07-10T20:06:36.801Z,21.92
2018-07-10T20:09:09.851Z,21.95
2018-07-10T20:11:54.541Z,21.94
2018-07-10T20:14:26.422Z,21.81
2018-07-10T20:17:03.572Z,21.80
2018-07-10T20:19:55.192Z,21.83
2018-07-10T20:22:29.636Z,21.75
2018-07-10T20:25:06.549Z,21.63
2018-07-10T20:28:42.258Z,21.71
2018-07-10T20:32:21.524Z,21.62
2018-07-10T20:35:02.394Z,21.58
2018-07-10T20:37:32.447Z,21.75
2018-07-10T20:40:02.590Z,21.83
2018-07-10T20:42:38.996Z,21.73
2018-07-10T20:45:09.779Z,21.78
2018-07-10T20:47:52.783Z,21.76
2018-07-10T20:51:37.808Z,21.88
2018-07-10T20:54:27.297Z,21.73
2018-07-10T20:57:05.430Z,21.80
2018-07-10T20:59:45.322Z,21.96
2018-07-10T21:02:27.439Z,21.86
2018-07-10T21:05:07.817Z,21.65
2018-07-10T21:07:58.407Z,21.59
2018-07-10T21:10:48.813Z,21.33
2018-07-10T21:14:27.502Z,21.25
2018-07-10T21:17:05.172Z,21.11
2018-07-10T21:19:45.111Z,20.97
2018-07-10T21:22:26.431Z,20.92
2018-07-10T21:25:06.869Z,21.03
2018-07-10T21:28:48.309Z,21.05
2018-07-10T21:31:31.850Z,20.81
2018-07-10T21:34:15.136Z,20.79
2018-07-10T21:37:53.365Z,20.72
2018-07-10T21:40:37.459Z,20.60
2018-07-10T21:44:19.139Z,20.69
2018-07-10T21:46:52.994Z,20.71
2018-07-10T21:50:00.370Z,20.87
2018-07-10T21:52:31.464Z,20.95
2018-07-10T21:55:03.020Z,21.10
2018-07-10T21:57:38.907Z,21.20
2018-07-10T22:00:10.239Z,21.28
2018-07-10T22:02:41.005Z,21.33
2018-07-10T22:05:11.535Z,21.35
2018-07-10T22:07:42.605Z,21.40
2018-07-10T22:10:13.986Z,21.30
2018-07-10T22:12:47.802Z,21.30
2018-07-10T22:15:19.404Z,21.36
2018-07-10T22:17:50.814Z,21.29
2018-07-10T22:20:22.177Z,21.29
2018-07-10T22:22:53.611Z,21.28
2018-07-10T22:25:24.752Z,21.20
2018-07-10T22:27:56.511Z,21.08
2018-07-10T22:30:32.997Z,21.06
2018-07-10T22:33:04.231Z,21.01
2018-07-10T22:35:34.958Z,20.95
2018-07-10T22:38:06.853Z,20.86
2018-07-10T22:40:38.019Z,20.80
2018-07-10T22:43:08.531Z,20.69
2018-07-10T22:45:39.950Z,20.61
2018-07-10T22:48:11.293Z,20.58
2018-07-10T22:50:42.349Z,20.53
2018-07-10T22:53:12.734Z,20.51
2018-07-10T22:55:44.151Z,20.44
2018-07-10T22:58:15.328Z,20.47
2018-07-10T23:00:46.874Z,20.44
2018-07-10T23:03:21.225Z,20.34
2018-07-10T23:05:54.098Z,20.42
2018-07-10T23:08:31.532Z,20.42
2018-07-10T23:11:04.385Z,20.33
2018-07-10T23:13:38.315Z,20.21
2018-07-10T23:16:09.430Z,20.14
2018-07-10T23:18:41.042Z,20.11
2018-07-10T23:21:14.270Z,20.08
2018-07-10T23:23:45.475Z,19.98
2018-07-10T23:26:18.398Z,19.95
2018-07-10T23:28:54.132Z,19.88
2018-07-10T23:31:28.385Z,19.85
2018-07-10T23:34:13.085Z,19.91
2018-07-10T23:36:45.555Z,19.91
2018-07-10T23:39:18.251Z,19.87
2018-07-10T23:42:52.383Z,19.73
2018-07-10T23:45:28.681Z,19.65
2018-07-10T23:48:05.399Z,19.72
2018-07-10T23:50:38.519Z,19.67
2018-07-10T23:54:15.850Z,19.44
2018-07-10T23:56:47.208Z,19.02
2018-07-10T23:59:18.345Z,18.77
